Time;durP1;ratioP1;P1;durP2;ratioP2;P2;SDS_P1;SDS_P2;PMS_P1;PMS_P2;Temp;Humidity;BMP_temperature;BMP_pressure;BME280_temperature;BME280_humidity;BME280_pressure;Samples;Min_cycle;Max_cycle;Signal;HPM_P1;HPM_P2
2021/08/21 00:01:59;;;;;;;5.27;4.57;;;19.40;99.90;;;;;;5027194;28;20449;-86
2021/08/21 00:04:38;;;;;;;5.30;4.90;;;19.40;99.90;;;;;;5046381;28;20537;-86
2021/08/21 00:07:25;;;;;;;5.30;4.17;;;19.30;99.90;;;;;;5024723;28;20476;-84
2021/08/21 00:13:24;;;;;;;5.10;4.20;;;19.30;99.90;;;;;;5025156;28;20526;-83
2021/08/21 00:16:08;;;;;;;4.33;3.90;;;19.40;99.90;;;;;;5020754;28;20512;-83
2021/08/21 00:18:51;;;;;;;5.90;5.00;;;19.30;99.90;;;;;;5030039;28;20457;-84
2021/08/21 00:21:26;;;;;;;6.50;4.97;;;19.30;99.90;;;;;;5021241;28;20480;-83
2021/08/21 00:24:01;;;;;;;5.63;5.10;;;19.30;99.90;;;;;;5022369;28;20963;-84
2021/08/21 00:26:30;;;;;;;5.00;4.60;;;19.30;99.90;;;;;;5021411;28;20902;-85
2021/08/21 00:29:20;;;;;;;6.07;4.80;;;19.40;99.90;;;;;;5039510;28;20473;-84
2021/08/21 00:32:09;;;;;;;5.40;4.90;;;19.20;99.90;;;;;;5019550;28;20500;-84
2021/08/21 00:34:46;;;;;;;5.63;5.07;;;19.20;99.90;;;;;;5019247;28;20477;-86
2021/08/21 00:37:31;;;;;;;6.03;5.50;;;19.30;99.90;;;;;;5023592;28;20466;-83
2021/08/21 00:39:59;;;;;;;5.67;5.17;;;19.20;99.90;;;;;;5035301;28;20453;-85
2021/08/21 00:42:26;;;;;;;5.60;5.20;;;19.20;99.90;;;;;;5021321;28;20464;-84
2021/08/21 00:44:54;;;;;;;6.20;5.70;;;19.20;99.90;;;;;;5021402;28;20556;-86
2021/08/21 00:47:30;;;;;;;7.70;5.20;;;19.10;99.90;;;;;;5034994;28;20497;-85
2021/08/21 00:49:58;;;;;;;5.67;5.23;;;19.00;99.90;;;;;;5016867;28;20564;-85
2021/08/21 00:52:34;;;;;;;4.93;4.43;;;19.10;99.90;;;;;;5035274;28;20469;-85
2021/08/21 00:55:02;;;;;;;5.47;5.00;;;19.10;99.90;;;;;;5025932;28;20524;-83
2021/08/21 00:57:33;;;;;;;5.83;4.90;;;19.20;99.90;;;;;;5038221;28;20453;-83
2021/08/21 01:00:04;;;;;;;5.93;4.80;;;19.00;99.90;;;;;;5021548;28;20453;-85
2021/08/21 01:02:32;;;;;;;5.10;4.70;;;19.00;99.90;;;;;;5037266;28;20465;-84
2021/08/21 01:04:59;;;;;;;4.90;4.57;;;18.90;99.90;;;;;;5009969;28;20483;-84
2021/08/21 01:07:31;;;;;;;5.17;4.77;;;19.00;99.90;;;;;;5016646;28;20484;-85
2021/08/21 01:10:07;;;;;;;5.33;4.83;;;19.20;99.90;;;;;;5025063;28;20497;-82
2021/08/21 01:12:35;;;;;;;6.40;4.93;;;19.30;99.90;;;;;;5024507;28;20457;-82
2021/08/21 01:15:12;;;;;;;4.87;4.37;;;19.10;99.90;;;;;;5032962;28;20493;-85
2021/08/21 01:17:49;;;;;;;5.60;5.13;;;18.90;99.90;;;;;;5030304;28;20890;-83
2021/08/21 01:20:36;;;;;;;6.80;5.37;;;18.80;99.90;;;;;;5027981;28;20525;-84
2021/08/21 01:23:13;;;;;;;5.70;5.20;;;18.70;99.90;;;;;;5041848;28;20463;-85
2021/08/21 01:25:45;;;;;;;6.60;4.93;;;18.80;99.90;;;;;;5035295;28;20521;-85
2021/08/21 01:28:16;;;;;;;5.57;5.10;;;19.00;99.90;;;;;;5040568;28;20418;-85
2021/08/21 01:30:45;;;;;;;6.40;5.47;;;19.00;99.90;;;;;;5037520;28;20456;-84
2021/08/21 01:33:18;;;;;;;5.57;5.07;;;18.90;99.90;;;;;;5038645;28;20529;-84
2021/08/21 01:35:58;;;;;;;5.40;4.90;;;18.90;99.90;;;;;;5043170;28;20473;-84
2021/08/21 01:38:25;;;;;;;5.87;4.77;;;18.80;99.90;;;;;;5029220;28;20683;-86
2021/08/21 01:40:59;;;;;;;5.60;5.00;;;18.70;99.90;;;;;;5035820;28;20532;-84
2021/08/21 01:43:29;;;;;;;5.50;4.93;;;18.90;99.90;;;;;;5033445;28;20476;-84
2021/08/21 01:45:56;;;;;;;7.63;6.20;;;19.00;99.90;;;;;;5045789;28;21008;-84
2021/08/21 01:48:25;;;;;;;6.83;5.93;;;18.90;99.90;;;;;;5038459;28;20527;-85
2021/08/21 01:50:57;;;;;;;5.93;5.27;;;18.80;99.90;;;;;;5040317;28;20507;-85
2021/08/21 01:53:24;;;;;;;7.40;5.33;;;18.60;99.90;;;;;;5018537;28;20465;-85
2021/08/21 01:55:52;;;;;;;6.07;5.47;;;18.50;99.90;;;;;;5032589;28;20513;-83
2021/08/21 01:58:22;;;;;;;5.10;4.70;;;18.40;99.90;;;;;;5021792;28;20481;-85
2021/08/21 02:00:51;;;;;;;5.80;5.30;;;18.40;99.90;;;;;;5038604;28;20453;-84
2021/08/21 02:03:21;;;;;;;5.47;5.00;;;18.30;99.90;;;;;;5038944;28;20445;-81
2021/08/21 02:05:54;;;;;;;8.10;6.07;;;18.30;99.90;;;;;;5042837;28;20512;-82
2021/08/21 02:08:24;;;;;;;5.50;5.00;;;18.20;99.90;;;;;;5023553;28;20465;-86
2021/08/21 02:10:53;;;;;;;5.70;5.20;;;18.20;99.90;;;;;;5029193;28;20439;-85
2021/08/21 02:13:31;;;;;;;7.27;5.70;;;18.10;99.90;;;;;;5010895;28;20453;-86
2021/08/21 02:16:04;;;;;;;6.40;5.80;;;18.00;99.90;;;;;;5038373;28;20477;-84
2021/08/21 02:18:34;;;;;;;5.53;5.03;;;18.00;99.90;;;;;;5029793;28;20450;-85
2021/08/21 02:25:23;;;;;;;5.60;4.60;;;17.70;99.90;;;;;;4954970;28;20519;-86
2021/08/21 02:28:06;;;;;;;5.40;5.00;;;17.90;99.90;;;;;;4957089;29;20972;-84
2021/08/21 02:30:40;;;;;;;5.83;5.30;;;17.90;99.90;;;;;;5018277;28;20459;-85
2021/08/21 02:33:11;;;;;;;6.23;5.63;;;18.10;99.90;;;;;;5035298;28;20990;-86
2021/08/21 02:36:09;;;;;;;5.70;5.30;;;18.20;99.90;;;;;;5027366;28;20474;-86
2021/08/21 02:40:06;;;;;;;7.80;5.37;;;18.20;99.90;;;;;;5039078;28;20496;-84
2021/08/21 02:42:32;;;;;;;5.59;4.88;;;18.20;99.90;;;;;;4512414;28;10002784;-85
2021/08/21 02:45:04;;;;;;;6.40;5.80;;;18.20;99.90;;;;;;5010904;28;20227;-84
2021/08/21 02:48:13;;;;;;;5.63;4.93;;;18.10;99.90;;;;;;5036426;28;20720;-83
2021/08/21 02:50:56;;;;;;;5.47;5.00;;;17.80;99.90;;;;;;5001355;28;20450;-84
2021/08/21 02:53:37;;;;;;;5.50;4.73;;;17.90;99.90;;;;;;4997587;28;20850;-83
2021/08/21 02:56:26;;;;;;;6.17;5.23;;;17.90;99.90;;;;;;5017278;28;20890;-83
2021/08/21 03:03:17;;;;;;;5.43;4.93;;;18.10;99.90;;;;;;4803185;29;20447;-84
2021/08/21 03:05:44;;;;;;;6.13;5.60;;;18.00;99.90;;;;;;4821366;29;20483;-84
2021/08/21 03:08:13;;;;;;;6.40;5.80;;;18.00;99.90;;;;;;4889531;29;20977;-83
2021/08/21 03:10:42;;;;;;;5.97;5.47;;;17.90;99.90;;;;;;4866987;29;20459;-84
2021/08/21 03:13:10;;;;;;;5.80;5.30;;;17.70;99.90;;;;;;4887967;29;20495;-83
2021/08/21 03:15:39;;;;;;;5.40;4.90;;;17.70;99.90;;;;;;4897786;29;21017;-83
2021/08/21 03:18:06;;;;;;;6.37;5.27;;;17.70;99.90;;;;;;4895384;29;20492;-84
2021/08/21 03:20:34;;;;;;;5.60;5.10;;;17.60;99.90;;;;;;4892917;29;20455;-83
2021/08/21 03:23:22;;;;;;;5.47;4.97;;;17.60;99.90;;;;;;4916295;28;20456;-82
2021/08/21 03:25:48;;;;;;;6.73;4.60;;;17.50;99.90;;;;;;4966756;28;20966;-84
2021/08/21 03:28:15;;;;;;;5.50;5.00;;;17.60;99.90;;;;;;4975113;28;20493;-84
2021/08/21 03:30:41;;;;;;;9.47;5.50;;;17.70;99.90;;;;;;4963029;28;20454;-85
2021/08/21 03:33:08;;;;;;;8.63;5.60;;;17.70;99.90;;;;;;4972912;28;20452;-84
2021/08/21 03:35:39;;;;;;;5.90;5.30;;;17.80;99.90;;;;;;4961614;28;20535;-86
2021/08/21 03:38:06;;;;;;;5.90;5.40;;;17.70;99.90;;;;;;4970820;28;20462;-84
2021/08/21 03:40:35;;;;;;;5.63;5.10;;;17.70;99.90;;;;;;5017969;28;20462;-85
2021/08/21 03:43:10;;;;;;;10.00;5.37;;;17.60;99.90;;;;;;5006856;28;20454;-84
2021/08/21 03:45:50;;;;;;;4.47;4.07;;;17.60;99.90;;;;;;5003683;28;20488;-83
2021/08/21 03:48:17;;;;;;;4.27;3.97;;;17.50;99.90;;;;;;5039187;28;20481;-85
2021/08/21 03:50:44;;;;;;;5.13;4.70;;;17.80;99.90;;;;;;5024206;28;20468;-85
2021/08/21 03:53:13;;;;;;;5.77;5.17;;;17.70;99.90;;;;;;5038205;28;20449;-83
2021/08/21 03:55:48;;;;;;;5.20;4.67;;;17.80;99.90;;;;;;5038859;28;20461;-86
2021/08/21 03:58:17;;;;;;;5.53;4.60;;;17.90;99.90;;;;;;5019799;28;20446;-84
2021/08/21 04:01:04;;;;;;;;;;;;;;;;;;;;;
2021/08/21 04:03:47;;;;;;;4.77;4.37;;;17.70;99.90;;;;;;5019180;28;20442;-83
2021/08/21 04:06:16;;;;;;;5.77;4.80;;;17.70;99.90;;;;;;5002002;28;20549;-85
2021/08/21 04:08:43;;;;;;;6.03;5.10;;;17.70;99.90;;;;;;5007166;28;20482;-85
2021/08/21 04:11:12;;;;;;;5.53;4.77;;;17.80;99.90;;;;;;5001876;28;20508;-84
2021/08/21 04:13:42;;;;;;;7.60;5.40;;;17.70;99.90;;;;;;5018035;28;21046;-85
2021/08/21 04:16:09;;;;;;;5.80;4.40;;;17.60;99.90;;;;;;5023807;28;20480;-84
2021/08/21 04:18:39;;;;;;;5.03;4.53;;;17.60;99.90;;;;;;5020599;28;20453;-82
2021/08/21 04:21:14;;;;;;;7.40;5.43;;;17.80;99.90;;;;;;5021928;28;20451;-84
2021/08/21 04:23:43;;;;;;;4.87;4.47;;;17.70;99.90;;;;;;5019671;28;20450;-85
2021/08/21 04:26:13;;;;;;;4.87;4.43;;;17.60;99.90;;;;;;5029192;28;20479;-86
2021/08/21 04:28:47;;;;;;;5.20;4.33;;;17.60;99.90;;;;;;5039119;28;20472;-84
2021/08/21 04:31:14;;;;;;;6.43;4.83;;;17.60;99.90;;;;;;5023781;28;20458;-84
2021/08/21 04:33:40;;;;;;;5.07;4.60;;;17.60;99.90;;;;;;5031069;28;20533;-84
2021/08/21 04:36:07;;;;;;;5.60;5.10;;;17.60;99.90;;;;;;5038052;28;20449;-84
2021/08/21 04:38:34;;;;;;;6.70;4.50;;;17.80;99.90;;;;;;5016859;28;20458;-84
2021/08/21 04:41:04;;;;;;;4.93;4.53;;;17.90;99.90;;;;;;5004750;28;20558;-83
2021/08/21 04:43:31;;;;;;;7.00;4.80;;;18.20;99.90;;;;;;5037819;28;20548;-82
2021/08/21 04:45:57;;;;;;;5.70;4.73;;;18.10;99.90;;;;;;5041986;28;20576;-83
2021/08/21 04:48:24;;;;;;;5.93;5.43;;;18.10;99.90;;;;;;5034333;28;20509;-85
2021/08/21 04:50:51;;;;;;;5.90;5.27;;;17.90;99.90;;;;;;5042480;28;20441;-84
2021/08/21 04:53:18;;;;;;;6.17;5.70;;;18.00;99.90;;;;;;5024064;28;20450;-82
2021/08/21 04:55:57;;;;;;;5.83;5.27;;;18.10;99.90;;;;;;5022469;28;20461;-85
2021/08/21 04:58:29;;;;;;;5.40;4.90;;;17.90;99.90;;;;;;5026584;28;20957;-82
2021/08/21 05:00:56;;;;;;;6.27;5.40;;;18.00;99.90;;;;;;5024664;28;20475;-82
2021/08/21 05:03:23;;;;;;;5.40;4.87;;;18.00;99.90;;;;;;5027104;28;20507;-84
2021/08/21 05:05:50;;;;;;;5.77;5.37;;;18.00;99.90;;;;;;5027643;28;20465;-84
2021/08/21 05:08:17;;;;;;;7.17;6.03;;;17.90;99.90;;;;;;5023740;28;20548;-85
2021/08/21 05:10:44;;;;;;;5.60;5.00;;;17.80;99.90;;;;;;5021316;28;20473;-83
2021/08/21 05:13:14;;;;;;;5.53;5.10;;;17.70;99.90;;;;;;5037914;28;20464;-83
2021/08/21 05:15:41;;;;;;;7.83;5.40;;;17.80;99.90;;;;;;5027760;28;20498;-82
2021/08/21 05:18:09;;;;;;;8.30;5.90;;;17.90;99.90;;;;;;5037573;28;20499;-85
2021/08/21 05:20:49;;;;;;;5.23;4.83;;;18.00;99.90;;;;;;5039509;28;20452;-85
2021/08/21 05:23:16;;;;;;;7.90;5.33;;;18.00;99.90;;;;;;5035838;28;20453;-83
2021/08/21 05:25:46;;;;;;;6.13;5.60;;;18.00;99.90;;;;;;5040093;28;20443;-85
2021/08/21 05:28:14;;;;;;;5.90;5.40;;;18.00;99.90;;;;;;5050316;28;20564;-85
2021/08/21 05:30:41;;;;;;;5.37;4.97;;;17.90;99.90;;;;;;5033535;28;20446;-85
2021/08/21 05:33:14;;;;;;;6.60;6.00;;;18.00;99.90;;;;;;5031523;28;20454;-84
2021/08/21 05:35:41;;;;;;;6.83;5.87;;;18.00;99.90;;;;;;5022406;28;20476;-83
2021/08/21 05:38:09;;;;;;;6.57;5.97;;;18.00;99.90;;;;;;5023504;28;20478;-84
2021/08/21 05:40:37;;;;;;;5.93;5.40;;;18.00;99.90;;;;;;5021665;28;20456;-83
2021/08/21 05:43:06;;;;;;;6.07;5.57;;;18.00;99.90;;;;;;5034625;28;20485;-83
2021/08/21 05:45:33;;;;;;;7.23;6.00;;;18.00;99.90;;;;;;5040122;28;20488;-83
2021/08/21 05:48:00;;;;;;;7.00;6.30;;;18.10;99.90;;;;;;5039703;28;20481;-83
2021/08/21 05:50:27;;;;;;;5.60;5.13;;;18.30;99.90;;;;;;5021450;28;20463;-84
2021/08/21 05:52:53;;;;;;;5.87;5.37;;;18.30;99.90;;;;;;5030905;28;20831;-83
2021/08/21 05:55:20;;;;;;;5.53;5.13;;;18.30;99.90;;;;;;5040099;28;20473;-83
2021/08/21 05:57:47;;;;;;;5.83;5.30;;;18.40;99.90;;;;;;5035425;28;20459;-86
2021/08/21 06:00:14;;;;;;;5.53;5.03;;;18.50;99.90;;;;;;5039052;28;20441;-84
2021/08/21 06:02:42;;;;;;;6.47;5.87;;;18.30;99.90;;;;;;5039163;28;20441;-83
2021/08/21 06:05:11;;;;;;;5.70;4.90;;;18.50;99.90;;;;;;5015780;28;20480;-84
2021/08/21 06:07:39;;;;;;;8.87;5.50;;;18.40;99.90;;;;;;5021799;28;20469;-83
2021/08/21 06:10:07;;;;;;;7.33;5.83;;;18.50;99.90;;;;;;5021862;28;20451;-84
2021/08/21 06:12:34;;;;;;;9.90;5.73;;;18.50;99.90;;;;;;5020160;28;20479;-83
2021/08/21 06:15:01;;;;;;;9.43;5.80;;;18.40;99.90;;;;;;5022131;28;20493;-83
2021/08/21 06:17:28;;;;;;;5.30;4.80;;;18.70;99.90;;;;;;5036634;28;20461;-83
2021/08/21 06:19:56;;;;;;;5.23;4.83;;;18.80;99.90;;;;;;5023760;28;20457;-85
2021/08/21 06:22:24;;;;;;;8.03;5.27;;;18.60;99.90;;;;;;5057151;28;20425;-84
2021/08/21 06:24:52;;;;;;;6.73;5.00;;;18.50;99.90;;;;;;5040351;28;20465;-86
2021/08/21 06:27:21;;;;;;;6.40;5.07;;;18.80;99.90;;;;;;5051135;28;20940;-85
2021/08/21 06:29:48;;;;;;;5.40;5.00;;;18.80;99.90;;;;;;5019127;28;20473;-85
2021/08/21 06:32:15;;;;;;;9.00;5.40;;;19.00;99.90;;;;;;5023142;28;20458;-85
2021/08/21 06:34:42;;;;;;;6.57;5.20;;;19.00;99.90;;;;;;5040780;28;20465;-83
2021/08/21 06:37:11;;;;;;;5.83;5.33;;;18.90;99.90;;;;;;5012033;28;20524;-85
2021/08/21 06:39:37;;;;;;;5.23;4.83;;;18.90;99.90;;;;;;5028376;28;20450;-85
2021/08/21 06:42:04;;;;;;;6.50;5.90;;;19.00;99.90;;;;;;5029947;28;20461;-83
2021/08/21 06:44:33;;;;;;;6.77;5.80;;;19.10;99.90;;;;;;5041242;28;20461;-82
2021/08/21 06:47:00;;;;;;;5.50;5.00;;;19.00;99.90;;;;;;5025069;28;20472;-84
2021/08/21 06:49:29;;;;;;;5.30;4.80;;;19.10;99.90;;;;;;5022308;28;20889;-84
2021/08/21 06:51:56;;;;;;;5.00;4.60;;;19.70;99.90;;;;;;5040340;28;20441;-85
2021/08/21 06:54:26;;;;;;;4.80;4.50;;;20.20;99.90;;;;;;5024296;28;21057;-83
2021/08/21 06:56:53;;;;;;;4.30;3.97;;;20.30;99.90;;;;;;5023423;28;20465;-85
2021/08/21 06:59:20;;;;;;;5.60;5.17;;;21.40;99.90;;;;;;5041324;28;20465;-84
2021/08/21 07:01:46;;;;;;;5.07;4.57;;;22.80;99.40;;;;;;5024755;28;20795;-84
2021/08/21 07:04:17;;;;;;;5.17;4.67;;;24.60;96.90;;;;;;5021442;28;20466;-85
2021/08/21 07:06:43;;;;;;;7.50;4.70;;;26.20;93.40;;;;;;5019067;28;20446;-85
2021/08/21 07:09:10;;;;;;;5.20;4.80;;;27.80;90.20;;;;;;5019613;28;20513;-85
2021/08/21 07:11:37;;;;;;;4.60;4.20;;;28.50;85.50;;;;;;5019784;28;20454;-86
2021/08/21 07:14:06;;;;;;;5.77;3.97;;;29.20;80.40;;;;;;5021968;28;21341;-85
2021/08/21 07:16:36;;;;;;;4.40;3.63;;;29.20;79.80;;;;;;5018208;28;20986;-84
2021/08/21 07:19:05;;;;;;;5.13;4.03;;;29.90;77.50;;;;;;5041128;28;20506;-87
2021/08/21 07:21:36;;;;;;;4.67;4.30;;;30.20;74.80;;;;;;5005608;28;20549;-86
2021/08/21 07:24:03;;;;;;;4.20;3.90;;;31.00;71.40;;;;;;5020141;28;20931;-84
2021/08/21 07:26:33;;;;;;;3.60;3.30;;;30.90;68.70;;;;;;5007691;28;20534;-83
2021/08/21 07:29:00;;;;;;;3.40;3.10;;;30.50;70.40;;;;;;5025891;28;20990;-84
2021/08/21 07:31:27;;;;;;;3.20;2.90;;;31.30;66.80;;;;;;5028445;28;20444;-84
2021/08/21 07:33:54;;;;;;;3.77;3.47;;;32.10;64.70;;;;;;5037005;28;20441;-86
2021/08/21 07:36:20;;;;;;;3.70;3.40;;;31.80;62.30;;;;;;5037654;28;20468;-86
2021/08/21 07:38:52;;;;;;;4.00;3.60;;;31.80;62.10;;;;;;5045498;28;20430;-86
2021/08/21 07:41:19;;;;;;;2.90;2.70;;;32.00;61.60;;;;;;5036748;28;20446;-87
2021/08/21 07:43:46;;;;;;;3.40;3.00;;;32.20;60.00;;;;;;5038859;28;20458;-86
2021/08/21 07:46:13;;;;;;;4.47;3.60;;;32.20;59.60;;;;;;5021055;28;20534;-87
2021/08/21 07:48:40;;;;;;;3.83;3.50;;;31.30;60.70;;;;;;5020152;28;20493;-85
2021/08/21 07:51:06;;;;;;;3.13;2.93;;;30.70;63.10;;;;;;5019125;28;20439;-84
2021/08/21 07:53:33;;;;;;;3.30;3.00;;;30.60;63.70;;;;;;5020101;28;20455;-85
2021/08/21 07:56:06;;;;;;;3.10;2.90;;;31.20;63.70;;;;;;5001915;28;20501;-85
2021/08/21 07:58:33;;;;;;;2.90;2.70;;;31.90;60.60;;;;;;5018887;28;20935;-84
2021/08/21 08:01:00;;;;;;;3.20;3.00;;;32.30;59.00;;;;;;5017983;28;20993;-85
2021/08/21 08:03:28;;;;;;;2.80;2.60;;;32.30;58.80;;;;;;5020058;28;20846;-85
2021/08/21 08:05:55;;;;;;;3.63;3.40;;;32.40;58.10;;;;;;5019047;28;20534;-82
2021/08/21 08:08:23;;;;;;;4.13;2.60;;;32.40;57.70;;;;;;5003144;28;21113;-85
2021/08/21 08:10:51;;;;;;;3.10;2.90;;;32.10;58.50;;;;;;5020189;28;20459;-82
2021/08/21 08:13:19;;;;;;;3.13;2.40;;;32.30;58.40;;;;;;5002530;28;20459;-86
2021/08/21 08:15:49;;;;;;;2.93;2.63;;;32.30;58.00;;;;;;5023582;28;20480;-85
2021/08/21 08:18:16;;;;;;;2.83;2.67;;;32.40;58.00;;;;;;5009431;28;20954;-86
2021/08/21 08:20:43;;;;;;;2.70;2.50;;;33.00;56.80;;;;;;5023847;28;20896;-84
2021/08/21 08:23:11;;;;;;;4.97;3.77;;;32.90;56.20;;;;;;5023838;28;20501;-85
2021/08/21 08:25:38;;;;;;;3.37;3.17;;;33.40;55.20;;;;;;5024153;28;20492;-85
2021/08/21 08:28:09;;;;;;;3.40;3.10;;;33.10;55.10;;;;;;5004973;28;20561;-85
2021/08/21 08:30:42;;;;;;;3.13;2.93;;;32.40;56.00;;;;;;5008460;28;20453;-85
2021/08/21 08:33:09;;;;;;;3.87;3.57;;;31.10;57.60;;;;;;5024214;28;20458;-85
2021/08/21 08:35:36;;;;;;;3.27;3.07;;;29.40;62.00;;;;;;5044662;28;20470;-85
2021/08/21 08:38:03;;;;;;;4.90;3.20;;;27.80;66.30;;;;;;5036150;28;21027;-84
2021/08/21 08:40:40;;;;;;;4.40;4.10;;;26.60;72.70;;;;;;5007279;28;20449;-84
2021/08/21 08:43:08;;;;;;;4.33;3.93;;;26.20;75.50;;;;;;4333734;28;10000737;-82
2021/08/21 08:45:35;;;;;;;5.47;3.80;;;26.00;78.00;;;;;;5030543;28;20226;-84
2021/08/21 08:48:02;;;;;;;3.53;3.23;;;25.90;79.80;;;;;;5020807;28;20485;-83
2021/08/21 08:50:30;;;;;;;4.10;3.70;;;26.00;80.50;;;;;;5031234;28;20461;-87
2021/08/21 08:52:59;;;;;;;4.00;3.70;;;26.70;78.90;;;;;;5025999;28;20972;-86
2021/08/21 08:55:26;;;;;;;6.20;4.40;;;27.40;75.90;;;;;;5024700;28;20501;-85
2021/08/21 08:57:54;;;;;;;4.80;4.40;;;27.90;73.70;;;;;;5023875;28;20560;-84
2021/08/21 09:00:24;;;;;;;5.53;4.33;;;27.70;74.00;;;;;;5026695;28;20449;-84
2021/08/21 09:02:55;;;;;;;5.87;5.37;;;28.80;71.30;;;;;;5029140;28;20451;-83
2021/08/21 09:08:05;;;;;;;7.03;5.20;;;30.50;63.90;;;;;;5030351;28;20485;-85
2021/08/21 09:10:33;;;;;;;5.37;4.73;;;30.40;63.50;;;;;;5110510;22;20516;-85
2021/08/21 09:16:06;;;;;;;4.60;4.30;;;31.60;59.70;;;;;;4343851;26;20489;-83
2021/08/21 09:18:47;;;;;;;4.80;4.40;;;32.40;58.10;;;;;;5007181;28;20435;-87
2021/08/21 09:21:19;;;;;;;7.80;3.97;;;32.80;56.70;;;;;;5018666;28;20458;-85
2021/08/21 09:24:00;;;;;;;4.20;3.80;;;33.00;56.20;;;;;;5014958;28;20655;-86
2021/08/21 09:26:36;;;;;;;3.80;3.50;;;33.10;54.60;;;;;;5006102;28;20465;-83
2021/08/21 09:29:11;;;;;;;3.77;3.43;;;32.10;55.20;;;;;;5002890;28;20489;-86
2021/08/21 09:31:43;;;;;;;4.20;3.80;;;31.80;56.10;;;;;;5010686;28;20429;-86
2021/08/21 09:34:21;;;;;;;5.13;4.67;;;31.80;56.50;;;;;;5002385;28;20485;-86
2021/08/21 09:36:54;;;;;;;5.13;3.50;;;32.00;56.40;;;;;;4999675;28;20489;-85
2021/08/21 09:39:33;;;;;;;2.80;2.60;;;31.80;56.30;;;;;;4996745;28;20452;-86
2021/08/21 09:42:05;;;;;;;4.03;3.33;;;31.90;56.40;;;;;;4996361;28;20454;-85
2021/08/21 09:44:44;;;;;;;3.50;3.20;;;32.60;55.80;;;;;;5000340;28;20495;-85
2021/08/21 09:47:27;;;;;;;3.80;3.50;;;32.60;55.10;;;;;;4998114;28;21239;-84
2021/08/21 09:50:15;;;;;;;3.80;3.43;;;33.10;54.30;;;;;;4998628;28;20522;-84
2021/08/21 09:52:46;;;;;;;4.27;2.80;;;33.00;54.10;;;;;;4997499;28;20448;-82
2021/08/21 09:55:20;;;;;;;3.17;2.87;;;32.50;54.40;;;;;;5000890;28;20471;-84
2021/08/21 10:00:34;;;;;;;4.40;2.10;;;31.60;54.40;;;;;;5030326;22;20496;-85
2021/08/21 10:03:07;;;;;;;2.20;2.10;;;31.20;55.10;;;;;;5004395;28;20450;-83
2021/08/21 10:05:35;;;;;;;2.30;2.20;;;32.10;52.80;;;;;;5038990;28;20572;-87
2021/08/21 10:10:53;;;;;;;2.23;2.00;;;31.50;54.00;;;;;;5027738;28;20462;-86
2021/08/21 10:13:28;;;;;;;2.70;2.03;;;31.50;54.20;;;;;;5030581;28;20535;-86
2021/08/21 10:16:07;;;;;;;2.60;2.40;;;31.60;53.50;;;;;;5014790;28;20478;-84
2021/08/21 10:18:37;;;;;;;2.60;2.40;;;31.40;53.30;;;;;;5023905;28;20474;-83
2021/08/21 10:21:10;;;;;;;2.80;2.50;;;31.40;54.20;;;;;;4985406;28;20441;-85
2021/08/21 10:23:51;;;;;;;1.90;1.80;;;31.50;53.60;;;;;;4996814;28;20456;-83
2021/08/21 10:26:31;;;;;;;2.30;2.20;;;31.10;53.80;;;;;;5014624;28;20464;-86
2021/08/21 10:29:02;;;;;;;2.90;2.10;;;31.30;53.80;;;;;;5009683;28;20476;-84
2021/08/21 10:31:39;;;;;;;2.87;2.60;;;32.10;52.70;;;;;;5027956;28;20476;-84
2021/08/21 10:34:14;;;;;;;2.57;2.37;;;32.40;51.90;;;;;;5031532;28;20553;-86
2021/08/21 10:36:53;;;;;;;2.50;2.30;;;31.80;52.60;;;;;;5012525;28;20459;-86
2021/08/21 10:39:37;;;;;;;2.37;2.17;;;32.10;51.80;;;;;;5004065;28;20515;-85
2021/08/21 10:42:28;;;;;;;3.17;2.47;;;31.50;52.50;;;;;;4985702;28;20477;-84
2021/08/21 10:45:00;;;;;;;2.00;1.70;;;31.20;53.70;;;;;;5000689;28;20519;-86
2021/08/21 10:47:30;;;;;;;2.53;2.33;;;31.60;52.50;;;;;;5020477;28;20451;-85
2021/08/21 10:50:46;;;;;;;2.43;2.10;;;32.30;51.70;;;;;;5016876;28;20486;-86
2021/08/21 10:53:31;;;;;;;2.20;2.10;;;31.60;51.40;;;;;;5012634;28;20449;-87
2021/08/21 10:56:03;;;;;;;3.77;2.10;;;31.40;52.30;;;;;;5020228;28;20504;-84
2021/08/21 10:58:54;;;;;;;2.37;2.10;;;30.90;53.30;;;;;;5017179;28;20963;-85
2021/08/21 11:01:24;;;;;;;2.30;2.10;;;30.90;54.40;;;;;;5024606;28;20458;-85
2021/08/21 11:04:01;;;;;;;2.60;2.40;;;31.40;53.70;;;;;;5019850;28;20487;-83
2021/08/21 11:06:42;;;;;;;2.60;2.33;;;31.30;53.50;;;;;;5035164;28;20453;-84
2021/08/21 11:09:28;;;;;;;2.33;2.13;;;31.00;54.60;;;;;;5030342;28;20527;-83
2021/08/21 11:11:55;;;;;;;4.67;2.30;;;31.30;53.60;;;;;;5015279;28;20924;-85
2021/08/21 11:14:34;;;;;;;1.93;1.73;;;31.40;52.90;;;;;;5009022;28;20471;-85
2021/08/21 11:17:11;;;;;;;2.53;2.33;;;31.10;53.30;;;;;;5010523;28;20482;-85
2021/08/21 11:19:45;;;;;;;3.77;2.43;;;31.20;53.20;;;;;;5029333;28;20461;-84
2021/08/21 11:22:26;;;;;;;2.10;1.90;;;30.60;54.30;;;;;;5015065;28;20461;-85
2021/08/21 11:25:06;;;;;;;2.10;2.00;;;31.40;53.10;;;;;;5026418;28;20473;-85
2021/08/21 11:27:38;;;;;;;2.53;2.33;;;31.50;52.10;;;;;;5011825;28;20931;-85
2021/08/21 11:32:42;;;;;;;3.33;3.03;;;31.40;52.10;;;;;;5053164;28;20489;-85
2021/08/21 11:35:26;;;;;;;3.00;2.80;;;31.70;52.70;;;;;;5034270;28;20504;-85
2021/08/21 11:38:23;;;;;;;2.23;2.03;;;31.90;51.40;;;;;;5005201;28;20951;-85
2021/08/21 11:40:51;;;;;;;3.60;3.30;;;31.40;52.50;;;;;;4992255;28;20459;-85
2021/08/21 11:43:31;;;;;;;5.53;2.63;;;31.60;52.70;;;;;;5010215;28;20449;-87
2021/08/21 11:46:02;;;;;;;3.27;2.97;;;31.10;53.20;;;;;;5011530;28;20485;-86
2021/08/21 11:48:34;;;;;;;4.57;2.63;;;31.40;52.90;;;;;;5019797;28;20530;-84
2021/08/21 11:51:04;;;;;;;4.00;2.70;;;31.00;53.30;;;;;;5003719;28;20446;-86
2021/08/21 11:53:37;;;;;;;3.37;3.07;;;30.10;54.90;;;;;;5028071;28;20454;-84
2021/08/21 11:56:04;;;;;;;3.67;2.63;;;30.20;55.10;;;;;;5002483;28;20476;-84
2021/08/21 11:58:37;;;;;;;4.00;2.97;;;30.00;55.50;;;;;;5019166;28;20971;-84
2021/08/21 12:01:24;;;;;;;3.20;2.73;;;30.40;55.60;;;;;;5018286;28;20940;-83
2021/08/21 12:06:20;;;;;;;2.80;2.60;;;31.00;54.30;;;;;;5039977;28;20445;-84
2021/08/21 12:08:47;;;;;;;3.40;3.10;;;31.10;53.80;;;;;;5022178;28;20442;-84
2021/08/21 12:11:15;;;;;;;3.33;2.70;;;30.70;54.10;;;;;;5028881;28;20461;-84
2021/08/21 12:13:42;;;;;;;2.63;2.30;;;31.00;53.30;;;;;;5018905;28;20454;-83
2021/08/21 12:16:16;;;;;;;2.50;2.30;;;30.70;53.40;;;;;;5001624;28;20488;-83
2021/08/21 12:18:50;;;;;;;7.93;3.20;;;30.90;53.30;;;;;;5001574;28;20458;-83
2021/08/21 12:21:19;;;;;;;2.60;2.40;;;31.00;52.60;;;;;;5010265;28;20446;-83
2021/08/21 12:23:48;;;;;;;2.80;2.60;;;30.90;53.20;;;;;;5000321;28;20463;-84
2021/08/21 12:26:17;;;;;;;3.07;2.87;;;31.40;52.00;;;;;;5024587;28;20881;-83
2021/08/21 12:28:46;;;;;;;4.30;2.40;;;31.10;52.60;;;;;;5013192;28;20450;-82
2021/08/21 12:31:16;;;;;;;3.00;2.80;;;30.60;52.90;;;;;;5013347;28;20459;-85
2021/08/21 12:33:45;;;;;;;3.10;2.90;;;30.70;52.20;;;;;;5016642;28;20441;-86
2021/08/21 12:36:19;;;;;;;2.80;2.50;;;30.50;52.70;;;;;;5035296;28;20518;-85
2021/08/21 12:39:00;;;;;;;2.40;2.30;;;30.70;53.00;;;;;;5017221;28;20480;-86
2021/08/21 12:41:29;;;;;;;3.23;3.03;;;30.40;52.30;;;;;;5034742;28;20434;-85
2021/08/21 12:44:07;;;;;;;3.10;2.90;;;30.10;54.10;;;;;;5027397;28;20528;-86
2021/08/21 12:46:36;;;;;;;3.00;2.67;;;29.70;54.40;;;;;;5017868;28;20438;-85
2021/08/21 12:49:10;;;;;;;3.73;3.20;;;29.50;54.90;;;;;;5018592;28;20463;-88
2021/08/21 12:51:42;;;;;;;3.00;2.80;;;30.40;53.90;;;;;;5033167;28;20519;-87
2021/08/21 12:54:11;;;;;;;2.60;2.40;;;30.40;53.10;;;;;;5007304;28;20438;-85
2021/08/21 12:56:39;;;;;;;2.90;2.70;;;30.10;53.40;;;;;;5036987;28;20465;-87
2021/08/21 12:59:12;;;;;;;3.37;3.10;;;29.50;54.70;;;;;;5025802;28;20458;-87
2021/08/21 13:01:40;;;;;;;2.90;2.70;;;29.60;55.10;;;;;;5026939;28;20920;-87
2021/08/21 13:04:13;;;;;;;2.97;2.77;;;30.10;54.60;;;;;;5020477;28;20524;-83
2021/08/21 13:06:40;;;;;;;3.53;2.93;;;30.80;52.90;;;;;;5019078;28;20430;-88
2021/08/21 13:09:12;;;;;;;2.90;2.53;;;30.90;52.70;;;;;;5040286;28;20487;-88
2021/08/21 13:11:39;;;;;;;3.53;3.00;;;30.70;52.30;;;;;;5028135;28;20434;-88
2021/08/21 13:14:06;;;;;;;3.30;2.63;;;30.40;52.20;;;;;;5034351;28;20457;-85
2021/08/21 13:16:33;;;;;;;2.57;2.37;;;30.30;52.40;;;;;;5020514;28;20512;-86
2021/08/21 13:19:01;;;;;;;3.10;2.80;;;30.00;52.70;;;;;;5026606;28;20479;-85
2021/08/21 13:21:28;;;;;;;3.07;2.83;;;30.50;52.10;;;;;;5023113;28;20461;-84
2021/08/21 13:23:56;;;;;;;2.93;2.63;;;30.30;52.30;;;;;;5016078;28;20442;-84
2021/08/21 13:26:25;;;;;;;3.47;2.70;;;30.20;52.50;;;;;;5030852;28;20480;-84
2021/08/21 13:28:52;;;;;;;3.17;2.70;;;30.50;52.20;;;;;;5021126;28;20457;-86
2021/08/21 13:31:20;;;;;;;2.87;2.27;;;30.40;51.50;;;;;;5011036;28;20457;-86
2021/08/21 13:33:47;;;;;;;3.60;2.97;;;30.10;51.90;;;;;;5014608;28;21003;-85
2021/08/21 13:36:14;;;;;;;2.67;2.50;;;30.00;52.50;;;;;;5026551;28;20543;-85
2021/08/21 13:38:41;;;;;;;3.17;2.87;;;29.70;52.90;;;;;;5013009;28;20526;-85
2021/08/21 13:41:08;;;;;;;4.03;2.77;;;29.50;53.80;;;;;;5031333;28;20466;-85